Terminal Aerodrome Forecast
Issued by NWS Des Moines, IA

Home | Current Version | Previous Version | Text Only | Print | Product List | Glossary On
Versions: 1 2 3 4 5 6 7 8 9 10 11 12 13 14 15 16 17 18 19 20
000
FTUS43 KDMX 220520
TAFDSM
TAF
KDSM 220520Z 2206/2306 14009KT P6SM SCT050
     FM221000 14011KT P6SM BKN050
     FM230000 15009KT P6SM BKN040
     FM230500 15009KT 6SM -SHRA OVC030=

USA.gov is the U.S. government's official web portal to all federal, state and local government web resources and services.